createdAt,value
2019-02-27T00:01:08.615Z,5.80
2019-02-27T00:03:36.795Z,5.80
2019-02-27T00:06:04.559Z,5.70
2019-02-27T00:08:32.292Z,5.70
2019-02-27T00:11:00.001Z,5.60
2019-02-27T00:13:27.672Z,5.60
2019-02-27T00:15:56.991Z,5.50
2019-02-27T00:18:24.674Z,5.50
2019-02-27T00:20:52.389Z,5.40
2019-02-27T00:23:23.879Z,5.40
2019-02-27T00:25:49.562Z,5.30
2019-02-27T00:28:17.316Z,5.20
2019-02-27T00:30:45.093Z,5.20
2019-02-27T00:33:12.813Z,5.20
2019-02-27T00:35:40.583Z,5.10
2019-02-27T00:38:08.273Z,5.10
2019-02-27T00:40:39.338Z,5.00
2019-02-27T00:43:05.462Z,5.00
2019-02-27T00:45:33.144Z,5.00
2019-02-27T00:48:00.834Z,4.90
2019-02-27T00:50:28.501Z,4.90
2019-02-27T00:52:56.243Z,4.90
2019-02-27T00:55:23.982Z,4.80
2019-02-27T00:57:53.910Z,4.80
2019-02-27T01:00:21.143Z,4.80
2019-02-27T01:02:52.606Z,4.70
2019-02-27T01:05:18.460Z,4.70
2019-02-27T01:07:46.104Z,4.60
2019-02-27T01:10:14.006Z,4.60
2019-02-27T01:12:41.750Z,4.50
2019-02-27T01:15:10.711Z,4.50
2019-02-27T01:17:39.036Z,4.50
2019-02-27T01:20:11.240Z,4.40
2019-02-27T01:22:36.667Z,4.40
2019-02-27T01:25:04.844Z,4.40
2019-02-27T01:27:32.667Z,4.40
2019-02-27T01:30:00.359Z,4.30
2019-02-27T01:32:28.848Z,4.30
2019-02-27T01:34:57.585Z,4.30
2019-02-27T01:37:25.390Z,4.30
2019-02-27T01:39:55.345Z,4.30
2019-02-27T01:42:23.146Z,4.30
2019-02-27T01:44:50.823Z,4.30
2019-02-27T01:47:19.107Z,4.20
2019-02-27T01:49:48.879Z,4.20
2019-02-27T01:52:16.313Z,4.20
2019-02-27T01:54:46.079Z,4.20
2019-02-27T01:57:13.527Z,4.20
2019-02-27T01:59:41.236Z,4.20
2019-02-27T02:02:08.981Z,4.10
2019-02-27T02:04:36.677Z,4.20
2019-02-27T02:07:06.583Z,4.10
2019-02-27T02:09:35.496Z,4.00
2019-02-27T02:12:08.937Z,4.00
2019-02-27T02:14:44.034Z,4.10
2019-02-27T02:17:38.239Z,4.00
2019-02-27T02:20:46.038Z,4.00
2019-02-27T02:23:41.574Z,3.90
2019-02-27T02:26:46.219Z,3.90
2019-02-27T02:29:54.715Z,3.90
2019-02-27T02:32:44.848Z,3.90
2019-02-27T02:35:52.156Z,3.90
2019-02-27T02:38:51.751Z,3.90
2019-02-27T02:42:00.184Z,3.80
2019-02-27T02:45:21.780Z,3.80
2019-02-27T02:48:20.389Z,3.70
2019-02-27T02:51:29.094Z,3.70
2019-02-27T02:54:28.756Z,3.60
2019-02-27T02:57:09.639Z,3.60
2019-02-27T03:00:08.091Z,3.60
2019-02-27T03:03:00.805Z,3.60
2019-02-27T03:06:19.932Z,3.50
2019-02-27T03:09:41.695Z,3.50
2019-02-27T03:12:54.795Z,3.50
2019-02-27T03:16:04.883Z,3.40
2019-02-27T03:19:11.670Z,3.40
2019-02-27T03:22:11.360Z,3.40
2019-02-27T03:25:10.535Z,3.30
2019-02-27T03:27:46.160Z,3.30
2019-02-27T03:30:47.013Z,3.30
2019-02-27T03:33:46.818Z,3.30
2019-02-27T03:36:43.794Z,3.20
2019-02-27T03:39:45.161Z,3.30
2019-02-27T03:42:45.758Z,3.30
2019-02-27T03:45:22.287Z,3.20
2019-02-27T03:51:16.475Z,3.20
2019-02-27T03:54:26.019Z,3.10
2019-02-27T03:57:28.162Z,3.10
2019-02-27T04:00:18.002Z,3.10
2019-02-27T04:03:40.350Z,3.10
2019-02-27T04:06:42.862Z,3.10
2019-02-27T04:09:10.590Z,3.00
2019-02-27T04:11:41.470Z,3.00
2019-02-27T04:14:27.978Z,3.00
2019-02-27T04:16:55.726Z,3.00
2019-02-27T04:19:23.453Z,3.00
2019-02-27T04:21:51.242Z,3.00
2019-02-27T04:24:22.162Z,3.00
2019-02-27T04:26:48.426Z,3.00
2019-02-27T04:29:16.129Z,2.90
2019-02-27T04:31:43.864Z,2.90
2019-02-27T04:34:11.604Z,2.90
2019-02-27T04:36:39.751Z,2.80
2019-02-27T04:39:07.498Z,2.80
2019-02-27T04:41:35.197Z,2.80
2019-02-27T04:44:05.014Z,2.80
2019-02-27T04:46:32.433Z,2.80
2019-02-27T04:49:03.911Z,2.70
2019-02-27T04:51:29.599Z,2.70
2019-02-27T04:53:57.379Z,2.70
2019-02-27T04:56:25.029Z,2.70
2019-02-27T04:58:52.771Z,2.70
2019-02-27T05:01:20.444Z,2.70
2019-02-27T05:03:48.157Z,2.60
2019-02-27T05:06:15.867Z,2.70
2019-02-27T05:08:43.551Z,2.70
2019-02-27T05:11:14.304Z,2.70
2019-02-27T05:16:38.587Z,2.60
2019-02-27T05:19:06.523Z,2.90
2019-02-27T05:21:34.205Z,2.60
2019-02-27T05:24:01.939Z,2.60
2019-02-27T05:28:57.293Z,2.50
2019-02-27T05:31:25.021Z,2.60
2019-02-27T05:33:52.736Z,2.60
2019-02-27T05:36:20.468Z,2.50
2019-02-27T05:38:48.194Z,2.50
2019-02-27T05:41:15.873Z,2.50
2019-02-27T05:43:47.757Z,2.50
2019-02-27T05:46:15.023Z,2.50
2019-02-27T05:48:42.716Z,2.50
2019-02-27T05:51:10.770Z,2.50
2019-02-27T05:53:40.058Z,2.50
2019-02-27T05:56:07.807Z,2.50
2019-02-27T05:58:35.558Z,2.40
2019-02-27T06:01:05.045Z,2.40
2019-02-27T06:03:32.750Z,2.40
2019-02-27T06:06:00.498Z,2.40
2019-02-27T06:08:28.298Z,2.40
2019-02-27T06:10:56.237Z,2.40
2019-02-27T06:13:24.227Z,2.40
2019-02-27T06:15:51.989Z,2.40
2019-02-27T06:18:22.559Z,2.40
2019-02-27T06:20:49.183Z,2.40
2019-02-27T06:23:16.911Z,2.30
2019-02-27T06:25:44.641Z,2.40
2019-02-27T06:28:12.413Z,2.30
2019-02-27T06:30:40.112Z,2.30
2019-02-27T06:33:11.578Z,2.40
2019-02-27T06:35:40.007Z,2.30
2019-02-27T06:38:07.753Z,2.30
2019-02-27T06:40:35.454Z,2.30
2019-02-27T06:43:03.669Z,2.40
2019-02-27T06:45:31.407Z,2.50
2019-02-27T06:47:59.117Z,2.40
2019-02-27T06:50:26.964Z,2.40
2019-02-27T06:52:54.877Z,2.60
2019-02-27T06:55:25.356Z,2.50
2019-02-27T06:57:52.089Z,2.50
2019-02-27T07:00:19.813Z,2.60
2019-02-27T07:02:47.536Z,2.60
2019-02-27T07:05:15.384Z,2.70
2019-02-27T07:07:43.111Z,2.70
2019-02-27T07:10:11.980Z,2.80
2019-02-27T07:12:39.634Z,2.80
2019-02-27T07:15:10.253Z,2.90
2019-02-27T07:17:39.399Z,3.00
2019-02-27T07:20:15.917Z,3.10
2019-02-27T07:22:46.525Z,3.20
2019-02-27T07:25:13.246Z,3.30
2019-02-27T07:27:40.913Z,3.40
2019-02-27T07:30:12.060Z,3.40
2019-02-27T07:32:39.777Z,3.60
2019-02-27T07:35:07.657Z,3.70
2019-02-27T07:37:35.416Z,3.80
2019-02-27T07:40:08.028Z,3.90
2019-02-27T07:42:33.558Z,4.00
2019-02-27T07:45:01.312Z,4.20
2019-02-27T07:47:29.027Z,4.40
2019-02-27T07:49:56.767Z,4.60
2019-02-27T07:52:24.647Z,4.70
2019-02-27T07:54:52.362Z,6.90
2019-02-27T07:57:20.100Z,5.20
2019-02-27T07:59:48.131Z,5.30
2019-02-27T08:02:16.117Z,5.40
2019-02-27T08:04:44.742Z,5.60
2019-02-27T08:07:13.105Z,5.80
2019-02-27T08:09:41.131Z,6.00
2019-02-27T08:12:09.191Z,6.30
2019-02-27T08:14:37.799Z,6.60
2019-02-27T08:17:17.005Z,6.90
2019-02-27T08:19:35.726Z,7.40
2019-02-27T08:22:03.652Z,7.60
2019-02-27T08:24:33.772Z,7.90
2019-02-27T08:27:01.839Z,8.20
2019-02-27T08:29:29.912Z,8.50
2019-02-27T08:32:00.836Z,8.70
2019-02-27T08:34:27.554Z,8.90
2019-02-27T08:36:55.517Z,9.20
2019-02-27T08:39:23.451Z,9.40
2019-02-27T08:41:51.536Z,9.60
2019-02-27T08:44:19.473Z,9.80
2019-02-27T08:46:47.356Z,10.00
2019-02-27T08:49:15.423Z,10.10
2019-02-27T08:51:43.431Z,10.20
2019-02-27T08:54:11.793Z,10.50
2019-02-27T08:56:39.537Z,10.40
2019-02-27T08:59:07.472Z,10.70
2019-02-27T09:01:37.705Z,10.90
2019-02-27T09:04:06.194Z,11.10
2019-02-27T09:06:34.271Z,11.30
2019-02-27T09:09:02.223Z,9.70
2019-02-27T09:11:30.233Z,11.70
2019-02-27T09:13:58.364Z,12.00
2019-02-27T09:16:26.655Z,12.10
2019-02-27T09:18:54.663Z,12.20
2019-02-27T09:21:27.584Z,12.50
2019-02-27T09:23:52.283Z,12.70
2019-02-27T09:26:20.164Z,13.00
2019-02-27T09:28:47.920Z,13.20
2019-02-27T09:31:15.911Z,13.50
2019-02-27T09:33:43.604Z,13.90
2019-02-27T09:36:11.619Z,14.40
2019-02-27T09:38:39.382Z,14.70
2019-02-27T09:41:12.164Z,14.90
2019-02-27T09:43:37.057Z,15.30
2019-02-27T09:46:04.743Z,15.70
2019-02-27T09:48:33.459Z,15.70
2019-02-27T09:51:02.097Z,16.20
2019-02-27T09:53:30.006Z,16.50
2019-02-27T09:55:57.792Z,16.70
2019-02-27T09:58:25.584Z,17.10
2019-02-27T10:00:59.162Z,17.60
2019-02-27T10:03:27.055Z,18.10
2019-02-27T10:05:55.013Z,18.50
2019-02-27T10:08:25.308Z,18.60
2019-02-27T10:10:57.826Z,19.30
2019-02-27T10:13:25.565Z,19.70
2019-02-27T10:15:53.539Z,20.20
2019-02-27T10:18:22.177Z,20.40
2019-02-27T10:20:50.255Z,20.70
2019-02-27T10:23:18.178Z,20.40
2019-02-27T10:25:46.357Z,20.30
2019-02-27T10:28:14.393Z,20.50
2019-02-27T10:30:42.356Z,20.50
2019-02-27T10:33:11.243Z,20.80
2019-02-27T10:35:40.061Z,21.00
2019-02-27T10:38:07.964Z,21.70
2019-02-27T10:40:36.300Z,21.50
2019-02-27T10:43:04.176Z,22.00
2019-02-27T10:45:32.170Z,22.00
2019-02-27T10:47:59.969Z,22.20
2019-02-27T10:50:28.056Z,21.90
2019-02-27T10:52:56.011Z,21.70
2019-02-27T10:55:23.893Z,21.80
2019-02-27T10:57:51.887Z,22.50
2019-02-27T11:00:24.911Z,22.40
2019-02-27T11:02:52.550Z,22.10
2019-02-27T11:05:20.972Z,21.70
2019-02-27T11:07:50.179Z,22.00
2019-02-27T11:10:18.846Z,22.00
2019-02-27T11:12:46.634Z,22.80
2019-02-27T11:15:24.165Z,22.70
2019-02-27T11:17:51.897Z,22.50
2019-02-27T11:20:21.197Z,22.90
2019-02-27T11:22:49.338Z,23.40
2019-02-27T11:25:22.277Z,23.50
2019-02-27T11:27:47.658Z,23.70
2019-02-27T11:30:17.491Z,24.10
2019-02-27T11:32:45.239Z,24.60
2019-02-27T11:35:13.226Z,24.70
2019-02-27T11:37:41.361Z,24.90
2019-02-27T11:40:11.404Z,24.80
2019-02-27T11:42:39.099Z,24.90
2019-02-27T11:45:07.399Z,25.40
2019-02-27T11:47:35.148Z,25.60
2019-02-27T11:50:02.942Z,25.80
2019-02-27T11:52:31.341Z,25.90
2019-02-27T11:54:59.022Z,25.00
2019-02-27T11:57:30.548Z,26.40
2019-02-27T11:59:59.034Z,26.50
2019-02-27T12:02:29.765Z,26.40
2019-02-27T12:04:56.647Z,26.50
2019-02-27T12:07:24.973Z,26.20
2019-02-27T12:09:52.968Z,25.10
2019-02-27T12:12:23.335Z,24.50
2019-02-27T12:14:50.233Z,24.50
2019-02-27T12:17:18.357Z,24.60
2019-02-27T12:19:46.024Z,24.10
2019-02-27T12:22:13.982Z,23.60
2019-02-27T12:24:41.967Z,23.30
2019-02-27T12:27:10.379Z,23.30
2019-02-27T12:29:39.787Z,23.40
2019-02-27T12:32:07.720Z,23.20
2019-02-27T12:34:37.133Z,23.20
2019-02-27T12:37:05.260Z,23.00
2019-02-27T12:39:35.853Z,23.00
2019-02-27T12:42:07.089Z,23.30
2019-02-27T12:44:34.855Z,23.20
2019-02-27T12:47:05.541Z,23.60
2019-02-27T12:49:32.404Z,23.70
2019-02-27T12:52:00.118Z,23.60
2019-02-27T12:54:27.820Z,23.30
2019-02-27T12:56:55.702Z,22.80
2019-02-27T12:59:23.393Z,22.70
2019-02-27T13:01:51.873Z,22.80
2019-02-27T13:04:20.052Z,22.90
2019-02-27T13:06:48.183Z,23.00
2019-02-27T13:09:16.155Z,22.80
2019-02-27T13:11:44.986Z,22.70
2019-02-27T13:14:13.282Z,22.50
2019-02-27T13:16:41.428Z,22.50
2019-02-27T13:19:09.518Z,22.60
2019-02-27T13:21:37.582Z,22.70
2019-02-27T13:24:05.285Z,22.80
2019-02-27T13:26:34.661Z,22.80
2019-02-27T13:29:03.213Z,23.00
2019-02-27T13:31:31.349Z,23.20
2019-02-27T13:33:59.338Z,23.10
2019-02-27T13:36:27.338Z,22.90
2019-02-27T13:38:55.357Z,22.70
2019-02-27T13:41:23.889Z,22.90
2019-02-27T13:43:51.703Z,23.10
2019-02-27T13:46:20.169Z,23.30
2019-02-27T13:48:49.029Z,23.60
2019-02-27T13:51:16.815Z,23.90
2019-02-27T13:53:44.906Z,23.60
2019-02-27T13:56:12.673Z,23.50
2019-02-27T13:58:40.401Z,23.70
2019-02-27T14:01:12.004Z,24.20
2019-02-27T14:03:39.613Z,24.30
2019-02-27T14:06:09.405Z,24.70
2019-02-27T14:08:37.398Z,25.50
2019-02-27T14:11:05.683Z,26.10
2019-02-27T14:13:33.586Z,26.60
2019-02-27T14:16:01.690Z,26.40
2019-02-27T14:18:29.687Z,26.30
2019-02-27T14:20:59.013Z,26.80
2019-02-27T14:23:27.410Z,27.10
2019-02-27T14:25:55.342Z,26.70
2019-02-27T14:28:23.324Z,27.30
2019-02-27T14:30:51.320Z,27.60
2019-02-27T14:33:20.408Z,27.10
2019-02-27T14:35:48.747Z,26.70
2019-02-27T14:38:16.520Z,26.30
2019-02-27T14:40:44.238Z,26.60
2019-02-27T14:43:11.948Z,26.60
2019-02-27T14:45:40.934Z,26.00
2019-02-27T14:48:08.891Z,25.60
2019-02-27T14:50:36.650Z,25.40
2019-02-27T14:53:04.451Z,25.20
2019-02-27T14:55:35.779Z,24.90
2019-02-27T14:58:01.777Z,24.70
2019-02-27T15:00:29.882Z,24.20
2019-02-27T15:02:57.902Z,24.00
2019-02-27T15:05:25.720Z,24.10
2019-02-27T15:07:55.114Z,23.70
2019-02-27T15:10:23.116Z,23.40
2019-02-27T15:12:54.316Z,23.60
2019-02-27T15:15:25.289Z,23.50
2019-02-27T15:17:53.145Z,23.40
2019-02-27T15:20:21.630Z,23.40
2019-02-27T15:22:52.545Z,23.60
2019-02-27T15:25:18.915Z,23.70
2019-02-27T15:27:46.680Z,23.80
2019-02-27T15:30:33.885Z,24.00
2019-02-27T15:33:05.417Z,22.80
2019-02-27T15:35:33.476Z,23.90
2019-02-27T15:38:01.112Z,24.20
2019-02-27T15:40:30.063Z,22.80
2019-02-27T15:42:58.302Z,24.80
2019-02-27T15:45:26.300Z,24.30
2019-02-27T15:47:54.485Z,23.30
2019-02-27T15:50:25.303Z,22.40
2019-02-27T15:52:53.101Z,21.60
2019-02-27T15:55:20.844Z,21.00
2019-02-27T15:57:52.565Z,20.50
2019-02-27T16:00:19.785Z,20.00
2019-02-27T16:02:47.654Z,19.40
2019-02-27T16:05:15.452Z,19.00
2019-02-27T16:07:48.359Z,18.70
2019-02-27T16:10:14.821Z,18.40
2019-02-27T16:12:42.862Z,18.20
2019-02-27T16:15:10.825Z,18.10
2019-02-27T16:17:38.595Z,17.90
2019-02-27T16:20:08.959Z,17.80
2019-02-27T16:22:36.728Z,17.70
2019-02-27T16:25:04.806Z,17.60
2019-02-27T16:27:35.428Z,17.60
2019-02-27T16:30:02.147Z,17.60
2019-02-27T16:32:47.810Z,17.50
2019-02-27T16:35:12.299Z,17.50
2019-02-27T16:37:40.134Z,17.40
2019-02-27T16:40:10.414Z,17.40
2019-02-27T16:42:39.170Z,17.20
2019-02-27T16:47:37.800Z,17.00
2019-02-27T16:50:07.001Z,16.80
2019-02-27T16:52:34.752Z,16.70
2019-02-27T16:55:02.577Z,16.70
2019-02-27T16:57:30.272Z,16.40
2019-02-27T17:00:01.781Z,16.20
2019-02-27T17:02:29.701Z,16.00
2019-02-27T17:04:57.518Z,15.80
2019-02-27T17:07:26.073Z,15.70
2019-02-27T17:09:54.346Z,15.50
2019-02-27T17:12:22.098Z,15.30
2019-02-27T17:14:59.732Z,15.20
2019-02-27T17:17:27.672Z,15.00
2019-02-27T17:19:55.410Z,14.80
2019-02-27T17:22:23.157Z,14.60
2019-02-27T17:24:52.184Z,14.40
2019-02-27T17:27:20.520Z,14.20
2019-02-27T17:29:48.434Z,14.10
2019-02-27T17:32:16.277Z,13.90
2019-02-27T17:34:47.382Z,13.80
2019-02-27T17:37:13.511Z,13.60
2019-02-27T17:39:41.253Z,13.50
2019-02-27T17:42:09.005Z,13.30
2019-02-27T17:44:37.741Z,13.10
2019-02-27T17:47:07.617Z,13.10
2019-02-27T17:49:35.814Z,12.80
2019-02-27T17:52:11.106Z,12.70
2019-02-27T17:54:32.989Z,12.50
2019-02-27T17:57:01.540Z,12.40
2019-02-27T17:59:29.314Z,12.30
2019-02-27T18:01:58.831Z,12.20
2019-02-27T18:04:26.626Z,12.10
2019-02-27T18:06:54.867Z,11.90
2019-02-27T18:09:23.492Z,11.80
2019-02-27T18:11:52.520Z,11.70
2019-02-27T18:14:20.960Z,11.60
2019-02-27T18:16:51.910Z,11.50
2019-02-27T18:19:19.803Z,11.40
2019-02-27T18:21:47.484Z,11.40
2019-02-27T18:24:15.251Z,11.30
2019-02-27T18:26:43.029Z,11.20
2019-02-27T18:29:10.790Z,11.10
2019-02-27T18:31:38.503Z,11.00
2019-02-27T18:34:06.303Z,10.90
2019-02-27T18:36:42.629Z,10.90
2019-02-27T18:39:07.064Z,10.80
2019-02-27T18:41:34.805Z,10.80
2019-02-27T18:44:04.684Z,10.70
2019-02-27T18:46:32.456Z,10.60
2019-02-27T18:49:00.342Z,10.60
2019-02-27T18:51:29.933Z,10.50
2019-02-27T18:53:57.632Z,10.40
2019-02-27T18:56:25.496Z,10.30
2019-02-27T18:58:55.620Z,10.40
2019-02-27T19:01:23.259Z,10.30
2019-02-27T19:03:51.021Z,10.30
2019-02-27T19:06:18.740Z,10.20
2019-02-27T19:08:46.462Z,10.10
2019-02-27T19:11:16.074Z,10.10
2019-02-27T19:13:43.842Z,10.00
2019-02-27T19:16:11.663Z,10.00
2019-02-27T19:18:41.183Z,9.90
2019-02-27T19:21:09.461Z,9.80
2019-02-27T19:23:37.164Z,9.80
2019-02-27T19:26:06.389Z,9.70
2019-02-27T19:28:34.641Z,9.70
2019-02-27T19:31:02.478Z,9.60
2019-02-27T19:33:32.614Z,9.60
2019-02-27T19:35:59.790Z,9.50
2019-02-27T19:38:27.681Z,9.50
2019-02-27T19:40:55.344Z,9.40
2019-02-27T19:43:24.936Z,9.30
2019-02-27T19:45:52.654Z,9.30
2019-02-27T19:48:20.418Z,9.20
2019-02-27T19:50:48.088Z,9.20
2019-02-27T19:53:15.845Z,9.10
2019-02-27T19:55:44.982Z,9.10
2019-02-27T19:58:17.002Z,9.00
2019-02-27T20:00:48.492Z,9.00
2019-02-27T20:03:12.032Z,8.90
2019-02-27T20:05:39.992Z,8.90
2019-02-27T20:08:10.892Z,8.80
2019-02-27T20:10:37.803Z,8.80
2019-02-27T20:13:06.953Z,8.80
2019-02-27T20:15:36.449Z,8.70
2019-02-27T20:18:07.805Z,8.70
2019-02-27T20:20:40.107Z,8.60
2019-02-27T20:23:03.536Z,8.60
2019-02-27T20:25:32.865Z,8.50
2019-02-27T20:28:00.803Z,8.50
2019-02-27T20:30:28.531Z,8.40
2019-02-27T20:32:56.315Z,8.40
2019-02-27T20:35:24.029Z,8.40
2019-02-27T20:37:51.778Z,8.30
2019-02-27T20:40:19.728Z,8.30
2019-02-27T20:42:50.455Z,8.30
2019-02-27T20:45:17.040Z,8.20
2019-02-27T20:47:44.834Z,8.20
2019-02-27T20:50:20.985Z,8.10
2019-02-27T20:52:46.434Z,8.10
2019-02-27T20:55:14.478Z,8.00
2019-02-27T20:57:42.930Z,8.00
2019-02-27T21:00:12.441Z,7.90
2019-02-27T21:02:40.124Z,7.90
2019-02-27T21:05:09.504Z,7.90
2019-02-27T21:07:37.893Z,7.80
2019-02-27T21:10:08.275Z,7.80
2019-02-27T21:12:37.324Z,7.80
2019-02-27T21:15:05.802Z,7.70
2019-02-27T21:17:33.526Z,7.70
2019-02-27T21:20:01.231Z,7.70
2019-02-27T21:22:28.935Z,7.60
2019-02-27T21:24:56.732Z,7.60
2019-02-27T21:27:24.483Z,7.50
2019-02-27T21:29:53.996Z,7.50
2019-02-27T21:32:21.730Z,7.40
2019-02-27T21:34:49.567Z,7.40
2019-02-27T21:37:17.286Z,7.40
2019-02-27T21:39:44.988Z,7.30
2019-02-27T21:42:12.704Z,7.30
2019-02-27T21:44:40.605Z,7.30
2019-02-27T21:47:08.348Z,7.30
2019-02-27T21:49:36.097Z,7.30
2019-02-27T21:52:03.778Z,7.30
2019-02-27T21:54:31.554Z,7.30
2019-02-27T21:56:59.292Z,7.20
2019-02-27T21:59:27.064Z,7.30
2019-02-27T22:01:56.238Z,7.20
2019-02-27T22:04:24.273Z,7.20
2019-02-27T22:06:51.986Z,7.20
2019-02-27T22:09:19.687Z,7.20
2019-02-27T22:11:48.515Z,7.10
2019-02-27T22:14:16.976Z,7.10
2019-02-27T22:16:45.438Z,7.10
2019-02-27T22:19:13.188Z,7.00
2019-02-27T22:21:40.992Z,7.00
2019-02-27T22:24:08.784Z,7.00
2019-02-27T22:26:37.404Z,6.90
2019-02-27T22:29:06.056Z,6.90
2019-02-27T22:31:33.698Z,6.90
2019-02-27T22:34:02.396Z,6.80
2019-02-27T22:36:30.090Z,6.80
2019-02-27T22:39:00.181Z,6.80
2019-02-27T22:41:27.300Z,6.70
2019-02-27T22:43:55.750Z,6.70
2019-02-27T22:46:24.173Z,6.70
2019-02-27T22:48:51.909Z,6.60
2019-02-27T22:51:19.717Z,6.60
2019-02-27T22:53:47.405Z,6.60
2019-02-27T22:56:16.846Z,6.60
2019-02-27T22:58:44.709Z,6.50
2019-02-27T23:01:25.951Z,6.50
2019-02-27T23:03:59.238Z,6.50
2019-02-27T23:06:26.962Z,6.40
2019-02-27T23:08:55.161Z,6.40
2019-02-27T23:11:23.035Z,6.40
2019-02-27T23:13:50.990Z,6.40
2019-02-27T23:16:20.529Z,6.30
2019-02-27T23:18:49.230Z,6.30
2019-02-27T23:21:17.431Z,6.30
2019-02-27T23:23:45.230Z,6.40
2019-02-27T23:26:12.904Z,6.20
2019-02-27T23:28:40.750Z,6.30
2019-02-27T23:31:08.576Z,6.10
2019-02-27T23:33:36.750Z,6.10
2019-02-27T23:36:04.675Z,6.10
2019-02-27T23:38:34.741Z,6.10
2019-02-27T23:41:01.935Z,6.00
2019-02-27T23:43:29.641Z,6.00
2019-02-27T23:45:57.373Z,6.00
2019-02-27T23:48:25.133Z,5.90
2019-02-27T23:50:52.867Z,5.90
2019-02-27T23:53:20.548Z,5.90
2019-02-27T23:55:48.287Z,5.90
2019-02-27T23:58:18.350Z,5.90
